Las Peladas, Argentina
Current Conditions -  °F | °C
As of 1:00 AM on Saturday 25 Oct 2014 (Local Time) from SCAT Reporting Station
NA  
Wind Chill: 14°   Ceiling: NA
Heat Index: 14°   Visibility: 6mi
Dew Point: 12°   Wind: 2mph
Humidity: 88%   Direction: NA
Pressure: 29.94"   Gusts: NA
Location:  27.04°S, 68.09°W
Report Text: SCAT 250400Z AUTO VRB02KT 9999 // ///009 14/12 Q1014
Loading
Personal Weather Stations






























Interactive Weather Map
Tropical Storm Tracking
New forecast layout! Learn more

10-Day Weather Forecast

Advertisements
Track Severe Weather on mobile